sensor_id;sensor_type;location;lat;lon;timestamp;P1;durP1;ratioP1;P2;durP2;ratioP2
73919;SDS011;62266;53.348;-1.496;2023-07-16T00:01:08;5.20;;;1.25;;
73919;SDS011;62266;53.348;-1.496;2023-07-16T00:03:53;4.63;;;1.52;;
73919;SDS011;62266;53.348;-1.496;2023-07-16T00:06:37;3.87;;;1.13;;
73919;SDS011;62266;53.348;-1.496;2023-07-16T00:09:21;4.10;;;1.20;;
73919;SDS011;62266;53.348;-1.496;2023-07-16T00:12:05;3.67;;;1.23;;
73919;SDS011;62266;53.348;-1.496;2023-07-16T00:14:49;4.88;;;1.20;;
73919;SDS011;62266;53.348;-1.496;2023-07-16T00:17:33;3.55;;;1.48;;
73919;SDS011;62266;53.348;-1.496;2023-07-16T00:20:18;4.70;;;1.20;;
73919;SDS011;62266;53.348;-1.496;2023-07-16T00:23:02;3.28;;;1.25;;
73919;SDS011;62266;53.348;-1.496;2023-07-16T00:25:46;6.45;;;1.55;;
73919;SDS011;62266;53.348;-1.496;2023-07-16T00:28:30;7.10;;;1.42;;
73919;SDS011;62266;53.348;-1.496;2023-07-16T00:31:16;6.53;;;1.58;;
73919;SDS011;62266;53.348;-1.496;2023-07-16T00:34:00;6.37;;;1.17;;
73919;SDS011;62266;53.348;-1.496;2023-07-16T00:36:44;8.50;;;1.38;;
73919;SDS011;62266;53.348;-1.496;2023-07-16T00:39:28;3.45;;;1.20;;
73919;SDS011;62266;53.348;-1.496;2023-07-16T00:42:12;3.80;;;1.63;;
73919;SDS011;62266;53.348;-1.496;2023-07-16T00:44:56;4.82;;;1.00;;
73919;SDS011;62266;53.348;-1.496;2023-07-16T00:47:41;3.70;;;1.10;;
73919;SDS011;62266;53.348;-1.496;2023-07-16T00:50:25;4.53;;;1.30;;
73919;SDS011;62266;53.348;-1.496;2023-07-16T00:53:09;5.55;;;1.25;;
73919;SDS011;62266;53.348;-1.496;2023-07-16T00:55:54;4.90;;;1.10;;
73919;SDS011;62266;53.348;-1.496;2023-07-16T00:58:38;3.85;;;1.20;;
73919;SDS011;62266;53.348;-1.496;2023-07-16T01:01:22;7.13;;;1.30;;
73919;SDS011;62266;53.348;-1.496;2023-07-16T01:04:06;4.75;;;1.45;;
73919;SDS011;62266;53.348;-1.496;2023-07-16T01:06:51;3.08;;;1.17;;
73919;SDS011;62266;53.348;-1.496;2023-07-16T01:09:38;2.53;;;1.00;;
73919;SDS011;62266;53.348;-1.496;2023-07-16T01:12:25;4.72;;;1.25;;
73919;SDS011;62266;53.348;-1.496;2023-07-16T01:15:10;4.13;;;1.07;;
73919;SDS011;62266;53.348;-1.496;2023-07-16T01:17:54;1.38;;;0.82;;
73919;SDS011;62266;53.348;-1.496;2023-07-16T01:20:39;2.90;;;1.02;;
73919;SDS011;62266;53.348;-1.496;2023-07-16T01:29:33;3.73;;;0.90;;
73919;SDS011;62266;53.348;-1.496;2023-07-16T01:32:19;3.45;;;1.00;;
73919;SDS011;62266;53.348;-1.496;2023-07-16T01:35:05;2.17;;;0.80;;
73919;SDS011;62266;53.348;-1.496;2023-07-16T01:37:49;1.70;;;0.50;;
73919;SDS011;62266;53.348;-1.496;2023-07-16T01:40:33;6.97;;;1.42;;
73919;SDS011;62266;53.348;-1.496;2023-07-16T01:43:17;3.80;;;0.90;;
73919;SDS011;62266;53.348;-1.496;2023-07-16T01:46:02;4.45;;;0.90;;
73919;SDS011;62266;53.348;-1.496;2023-07-16T01:48:46;1.65;;;0.80;;
73919;SDS011;62266;53.348;-1.496;2023-07-16T01:51:30;3.25;;;1.00;;
73919;SDS011;62266;53.348;-1.496;2023-07-16T01:54:14;3.17;;;0.90;;
73919;SDS011;62266;53.348;-1.496;2023-07-16T01:56:58;1.40;;;0.70;;
73919;SDS011;62266;53.348;-1.496;2023-07-16T01:59:42;4.30;;;0.88;;
73919;SDS011;62266;53.348;-1.496;2023-07-16T02:02:26;4.18;;;0.80;;
73919;SDS011;62266;53.348;-1.496;2023-07-16T02:05:10;2.30;;;1.00;;
73919;SDS011;62266;53.348;-1.496;2023-07-16T02:07:54;4.00;;;1.13;;
73919;SDS011;62266;53.348;-1.496;2023-07-16T02:10:38;4.57;;;1.03;;
73919;SDS011;62266;53.348;-1.496;2023-07-16T02:13:22;1.95;;;0.60;;
73919;SDS011;62266;53.348;-1.496;2023-07-16T02:16:06;2.60;;;0.80;;
73919;SDS011;62266;53.348;-1.496;2023-07-16T02:18:51;3.42;;;0.80;;
73919;SDS011;62266;53.348;-1.496;2023-07-16T02:21:35;2.10;;;0.60;;
73919;SDS011;62266;53.348;-1.496;2023-07-16T02:24:19;2.57;;;0.70;;
73919;SDS011;62266;53.348;-1.496;2023-07-16T02:27:03;2.60;;;0.82;;
73919;SDS011;62266;53.348;-1.496;2023-07-16T02:29:47;3.15;;;0.70;;
73919;SDS011;62266;53.348;-1.496;2023-07-16T02:32:32;3.50;;;0.70;;
73919;SDS011;62266;53.348;-1.496;2023-07-16T02:35:16;2.25;;;0.60;;
73919;SDS011;62266;53.348;-1.496;2023-07-16T02:38:01;3.37;;;0.53;;
73919;SDS011;62266;53.348;-1.496;2023-07-16T02:40:45;1.35;;;0.40;;
73919;SDS011;62266;53.348;-1.496;2023-07-16T02:43:30;4.30;;;0.60;;
73919;SDS011;62266;53.348;-1.496;2023-07-16T02:46:14;2.35;;;1.00;;
73919;SDS011;62266;53.348;-1.496;2023-07-16T02:48:58;2.83;;;0.47;;
73919;SDS011;62266;53.348;-1.496;2023-07-16T02:51:42;3.20;;;0.30;;
73919;SDS011;62266;53.348;-1.496;2023-07-16T02:54:26;1.95;;;0.32;;
73919;SDS011;62266;53.348;-1.496;2023-07-16T02:57:10;1.10;;;0.22;;
73919;SDS011;62266;53.348;-1.496;2023-07-16T02:59:54;1.35;;;0.30;;
73919;SDS011;62266;53.348;-1.496;2023-07-16T03:02:38;1.60;;;0.30;;
73919;SDS011;62266;53.348;-1.496;2023-07-16T03:05:22;1.70;;;0.40;;
73919;SDS011;62266;53.348;-1.496;2023-07-16T03:08:06;0.88;;;0.40;;
73919;SDS011;62266;53.348;-1.496;2023-07-16T03:10:51;1.33;;;0.40;;
73919;SDS011;62266;53.348;-1.496;2023-07-16T03:13:34;2.17;;;0.35;;
73919;SDS011;62266;53.348;-1.496;2023-07-16T03:16:18;1.15;;;0.90;;
73919;SDS011;62266;53.348;-1.496;2023-07-16T03:19:02;2.70;;;0.83;;
73919;SDS011;62266;53.348;-1.496;2023-07-16T03:21:46;2.25;;;0.40;;
73919;SDS011;62266;53.348;-1.496;2023-07-16T03:24:32;2.95;;;0.65;;
73919;SDS011;62266;53.348;-1.496;2023-07-16T03:27:16;2.60;;;0.60;;
73919;SDS011;62266;53.348;-1.496;2023-07-16T03:30:01;3.13;;;0.73;;
73919;SDS011;62266;53.348;-1.496;2023-07-16T03:32:45;1.70;;;0.60;;
73919;SDS011;62266;53.348;-1.496;2023-07-16T03:35:29;3.08;;;0.90;;
73919;SDS011;62266;53.348;-1.496;2023-07-16T03:38:14;3.22;;;0.60;;
73919;SDS011;62266;53.348;-1.496;2023-07-16T03:40:58;1.50;;;0.43;;
73919;SDS011;62266;53.348;-1.496;2023-07-16T03:43:42;2.75;;;0.50;;
73919;SDS011;62266;53.348;-1.496;2023-07-16T03:46:26;1.20;;;0.30;;
73919;SDS011;62266;53.348;-1.496;2023-07-16T03:49:10;2.97;;;0.60;;
73919;SDS011;62266;53.348;-1.496;2023-07-16T03:51:54;1.05;;;0.30;;
73919;SDS011;62266;53.348;-1.496;2023-07-16T03:54:38;2.25;;;0.40;;
73919;SDS011;62266;53.348;-1.496;2023-07-16T03:57:22;1.55;;;0.50;;
73919;SDS011;62266;53.348;-1.496;2023-07-16T04:00:06;0.60;;;0.30;;
73919;SDS011;62266;53.348;-1.496;2023-07-16T04:02:52;2.70;;;0.55;;
73919;SDS011;62266;53.348;-1.496;2023-07-16T04:05:37;1.92;;;0.52;;
73919;SDS011;62266;53.348;-1.496;2023-07-16T04:08:20;1.63;;;0.55;;
73919;SDS011;62266;53.348;-1.496;2023-07-16T04:11:05;3.15;;;0.50;;
73919;SDS011;62266;53.348;-1.496;2023-07-16T04:13:49;1.57;;;0.43;;
73919;SDS011;62266;53.348;-1.496;2023-07-16T04:16:33;1.02;;;0.30;;
73919;SDS011;62266;53.348;-1.496;2023-07-16T04:19:17;4.35;;;0.50;;
73919;SDS011;62266;53.348;-1.496;2023-07-16T04:22:01;1.75;;;0.65;;
73919;SDS011;62266;53.348;-1.496;2023-07-16T04:24:45;2.38;;;0.80;;
73919;SDS011;62266;53.348;-1.496;2023-07-16T04:27:29;1.77;;;0.90;;
73919;SDS011;62266;53.348;-1.496;2023-07-16T04:30:13;2.35;;;1.05;;
73919;SDS011;62266;53.348;-1.496;2023-07-16T04:32:57;3.70;;;0.90;;
73919;SDS011;62266;53.348;-1.496;2023-07-16T04:35:41;1.13;;;0.70;;
73919;SDS011;62266;53.348;-1.496;2023-07-16T04:38:25;1.10;;;0.57;;
73919;SDS011;62266;53.348;-1.496;2023-07-16T04:41:09;1.60;;;0.50;;
73919;SDS011;62266;53.348;-1.496;2023-07-16T04:43:53;1.67;;;0.52;;
73919;SDS011;62266;53.348;-1.496;2023-07-16T04:46:37;2.20;;;0.47;;
73919;SDS011;62266;53.348;-1.496;2023-07-16T04:49:21;1.25;;;0.55;;
73919;SDS011;62266;53.348;-1.496;2023-07-16T04:52:05;2.88;;;0.63;;
73919;SDS011;62266;53.348;-1.496;2023-07-16T04:54:50;2.13;;;0.40;;
73919;SDS011;62266;53.348;-1.496;2023-07-16T04:57:33;3.17;;;0.80;;
73919;SDS011;62266;53.348;-1.496;2023-07-16T05:00:17;3.22;;;0.70;;
73919;SDS011;62266;53.348;-1.496;2023-07-16T05:03:01;1.95;;;0.70;;
73919;SDS011;62266;53.348;-1.496;2023-07-16T05:05:45;2.33;;;0.70;;
73919;SDS011;62266;53.348;-1.496;2023-07-16T05:08:29;1.93;;;0.70;;
73919;SDS011;62266;53.348;-1.496;2023-07-16T05:11:13;3.03;;;0.60;;
73919;SDS011;62266;53.348;-1.496;2023-07-16T05:13:57;2.83;;;0.40;;
73919;SDS011;62266;53.348;-1.496;2023-07-16T05:16:41;1.45;;;0.60;;
73919;SDS011;62266;53.348;-1.496;2023-07-16T05:19:26;1.35;;;0.65;;
73919;SDS011;62266;53.348;-1.496;2023-07-16T05:22:10;2.30;;;0.70;;
73919;SDS011;62266;53.348;-1.496;2023-07-16T05:24:54;4.32;;;0.90;;
73919;SDS011;62266;53.348;-1.496;2023-07-16T05:27:38;1.38;;;0.47;;
73919;SDS011;62266;53.348;-1.496;2023-07-16T05:30:22;1.60;;;0.68;;
73919;SDS011;62266;53.348;-1.496;2023-07-16T05:33:07;2.72;;;0.90;;
73919;SDS011;62266;53.348;-1.496;2023-07-16T05:35:50;3.10;;;0.97;;
73919;SDS011;62266;53.348;-1.496;2023-07-16T05:38:34;1.98;;;1.10;;
73919;SDS011;62266;53.348;-1.496;2023-07-16T05:41:18;1.88;;;1.42;;
73919;SDS011;62266;53.348;-1.496;2023-07-16T05:44:02;3.50;;;1.10;;
73919;SDS011;62266;53.348;-1.496;2023-07-16T05:46:46;2.65;;;1.30;;
73919;SDS011;62266;53.348;-1.496;2023-07-16T05:49:30;2.27;;;1.20;;
73919;SDS011;62266;53.348;-1.496;2023-07-16T05:52:15;2.70;;;1.42;;
73919;SDS011;62266;53.348;-1.496;2023-07-16T05:54:59;3.58;;;1.55;;
73919;SDS011;62266;53.348;-1.496;2023-07-16T05:57:43;3.95;;;1.63;;
73919;SDS011;62266;53.348;-1.496;2023-07-16T06:00:27;2.58;;;1.30;;
73919;SDS011;62266;53.348;-1.496;2023-07-16T06:03:11;2.17;;;1.50;;
73919;SDS011;62266;53.348;-1.496;2023-07-16T06:05:55;3.40;;;1.50;;
73919;SDS011;62266;53.348;-1.496;2023-07-16T06:08:39;3.00;;;1.70;;
73919;SDS011;62266;53.348;-1.496;2023-07-16T06:11:22;5.57;;;2.10;;
73919;SDS011;62266;53.348;-1.496;2023-07-16T06:14:06;7.47;;;2.50;;
73919;SDS011;62266;53.348;-1.496;2023-07-16T06:16:51;5.60;;;2.00;;
73919;SDS011;62266;53.348;-1.496;2023-07-16T06:19:36;5.78;;;2.30;;
73919;SDS011;62266;53.348;-1.496;2023-07-16T06:22:20;8.52;;;2.20;;
73919;SDS011;62266;53.348;-1.496;2023-07-16T06:25:04;6.25;;;1.92;;
73919;SDS011;62266;53.348;-1.496;2023-07-16T06:27:48;6.43;;;2.00;;
73919;SDS011;62266;53.348;-1.496;2023-07-16T06:30:32;3.00;;;1.63;;
73919;SDS011;62266;53.348;-1.496;2023-07-16T06:33:18;4.00;;;1.90;;
73919;SDS011;62266;53.348;-1.496;2023-07-16T06:36:02;5.70;;;2.00;;
73919;SDS011;62266;53.348;-1.496;2023-07-16T06:38:47;6.30;;;2.38;;
73919;SDS011;62266;53.348;-1.496;2023-07-16T06:41:31;4.00;;;1.50;;
73919;SDS011;62266;53.348;-1.496;2023-07-16T06:44:15;5.27;;;1.53;;
73919;SDS011;62266;53.348;-1.496;2023-07-16T06:47:00;4.88;;;1.30;;
73919;SDS011;62266;53.348;-1.496;2023-07-16T06:49:45;3.35;;;1.45;;
73919;SDS011;62266;53.348;-1.496;2023-07-16T06:52:29;4.45;;;1.30;;
73919;SDS011;62266;53.348;-1.496;2023-07-16T06:55:14;2.80;;;1.35;;
73919;SDS011;62266;53.348;-1.496;2023-07-16T06:57:59;5.10;;;1.40;;
73919;SDS011;62266;53.348;-1.496;2023-07-16T07:00:44;3.83;;;1.58;;
73919;SDS011;62266;53.348;-1.496;2023-07-16T07:03:28;4.38;;;1.20;;
73919;SDS011;62266;53.348;-1.496;2023-07-16T07:06:12;4.97;;;1.40;;
73919;SDS011;62266;53.348;-1.496;2023-07-16T07:08:56;6.03;;;1.40;;
73919;SDS011;62266;53.348;-1.496;2023-07-16T07:11:40;5.90;;;1.43;;
73919;SDS011;62266;53.348;-1.496;2023-07-16T07:14:24;5.15;;;1.33;;
73919;SDS011;62266;53.348;-1.496;2023-07-16T07:17:08;5.00;;;1.20;;
73919;SDS011;62266;53.348;-1.496;2023-07-16T07:19:52;2.97;;;0.88;;
73919;SDS011;62266;53.348;-1.496;2023-07-16T07:22:37;2.72;;;1.00;;
73919;SDS011;62266;53.348;-1.496;2023-07-16T07:25:21;5.77;;;1.10;;
73919;SDS011;62266;53.348;-1.496;2023-07-16T07:28:06;4.05;;;0.93;;
73919;SDS011;62266;53.348;-1.496;2023-07-16T07:30:50;5.85;;;1.42;;
73919;SDS011;62266;53.348;-1.496;2023-07-16T07:33:35;2.92;;;1.08;;
73919;SDS011;62266;53.348;-1.496;2023-07-16T07:36:19;4.30;;;1.35;;
73919;SDS011;62266;53.348;-1.496;2023-07-16T07:39:04;3.87;;;1.10;;
73919;SDS011;62266;53.348;-1.496;2023-07-16T07:41:48;4.88;;;1.10;;
73919;SDS011;62266;53.348;-1.496;2023-07-16T07:44:32;4.18;;;0.88;;
73919;SDS011;62266;53.348;-1.496;2023-07-16T07:47:16;5.35;;;1.25;;
73919;SDS011;62266;53.348;-1.496;2023-07-16T07:50:00;2.85;;;1.00;;
73919;SDS011;62266;53.348;-1.496;2023-07-16T07:52:44;2.80;;;1.03;;
73919;SDS011;62266;53.348;-1.496;2023-07-16T07:55:28;4.53;;;1.27;;
73919;SDS011;62266;53.348;-1.496;2023-07-16T07:58:12;10.73;;;1.45;;
73919;SDS011;62266;53.348;-1.496;2023-07-16T08:00:56;4.40;;;1.20;;
73919;SDS011;62266;53.348;-1.496;2023-07-16T08:03:40;3.10;;;1.10;;
73919;SDS011;62266;53.348;-1.496;2023-07-16T08:06:25;2.53;;;1.00;;
73919;SDS011;62266;53.348;-1.496;2023-07-16T08:09:10;4.43;;;1.65;;
73919;SDS011;62266;53.348;-1.496;2023-07-16T08:11:58;5.47;;;1.02;;
73919;SDS011;62266;53.348;-1.496;2023-07-16T08:14:42;4.25;;;0.95;;
73919;SDS011;62266;53.348;-1.496;2023-07-16T08:17:27;4.38;;;1.10;;
73919;SDS011;62266;53.348;-1.496;2023-07-16T08:20:11;3.30;;;1.23;;
73919;SDS011;62266;53.348;-1.496;2023-07-16T08:22:55;4.22;;;1.23;;
73919;SDS011;62266;53.348;-1.496;2023-07-16T08:25:40;6.40;;;1.75;;
73919;SDS011;62266;53.348;-1.496;2023-07-16T08:28:24;4.38;;;1.13;;
73919;SDS011;62266;53.348;-1.496;2023-07-16T08:31:12;4.93;;;1.20;;
73919;SDS011;62266;53.348;-1.496;2023-07-16T08:33:57;4.27;;;1.13;;
73919;SDS011;62266;53.348;-1.496;2023-07-16T08:37:03;2.60;;;0.88;;
73919;SDS011;62266;53.348;-1.496;2023-07-16T08:39:50;4.28;;;0.90;;
73919;SDS011;62266;53.348;-1.496;2023-07-16T08:42:39;2.45;;;1.10;;
73919;SDS011;62266;53.348;-1.496;2023-07-16T08:45:34;9.32;;;1.48;;
73919;SDS011;62266;53.348;-1.496;2023-07-16T08:48:19;5.90;;;1.47;;
73919;SDS011;62266;53.348;-1.496;2023-07-16T08:51:04;3.42;;;1.15;;
73919;SDS011;62266;53.348;-1.496;2023-07-16T08:53:48;2.90;;;1.10;;
73919;SDS011;62266;53.348;-1.496;2023-07-16T08:56:34;2.92;;;1.17;;
73919;SDS011;62266;53.348;-1.496;2023-07-16T08:59:19;2.67;;;1.00;;
73919;SDS011;62266;53.348;-1.496;2023-07-16T09:02:03;5.10;;;1.43;;
73919;SDS011;62266;53.348;-1.496;2023-07-16T09:04:47;2.38;;;0.93;;
73919;SDS011;62266;53.348;-1.496;2023-07-16T09:07:32;2.08;;;0.90;;
73919;SDS011;62266;53.348;-1.496;2023-07-16T09:10:17;5.95;;;1.42;;
73919;SDS011;62266;53.348;-1.496;2023-07-16T09:13:11;4.25;;;1.00;;
73919;SDS011;62266;53.348;-1.496;2023-07-16T09:15:57;2.07;;;1.10;;
73919;SDS011;62266;53.348;-1.496;2023-07-16T09:18:41;3.38;;;1.00;;
73919;SDS011;62266;53.348;-1.496;2023-07-16T09:21:27;3.22;;;1.00;;
73919;SDS011;62266;53.348;-1.496;2023-07-16T09:24:16;4.88;;;1.13;;
73919;SDS011;62266;53.348;-1.496;2023-07-16T09:27:01;3.08;;;0.90;;
73919;SDS011;62266;53.348;-1.496;2023-07-16T09:29:46;2.33;;;0.67;;
73919;SDS011;62266;53.348;-1.496;2023-07-16T09:32:35;3.28;;;1.27;;
73919;SDS011;62266;53.348;-1.496;2023-07-16T09:35:20;3.10;;;0.90;;
73919;SDS011;62266;53.348;-1.496;2023-07-16T09:38:04;4.47;;;1.00;;
73919;SDS011;62266;53.348;-1.496;2023-07-16T09:40:48;3.90;;;0.82;;
73919;SDS011;62266;53.348;-1.496;2023-07-16T09:43:32;3.87;;;0.90;;
73919;SDS011;62266;53.348;-1.496;2023-07-16T09:46:17;3.00;;;0.90;;
73919;SDS011;62266;53.348;-1.496;2023-07-16T09:49:01;2.20;;;0.90;;
73919;SDS011;62266;53.348;-1.496;2023-07-16T09:51:45;3.25;;;0.90;;
73919;SDS011;62266;53.348;-1.496;2023-07-16T09:54:32;2.55;;;0.82;;
73919;SDS011;62266;53.348;-1.496;2023-07-16T09:57:19;4.07;;;0.73;;
73919;SDS011;62266;53.348;-1.496;2023-07-16T10:00:06;3.55;;;1.10;;
73919;SDS011;62266;53.348;-1.496;2023-07-16T10:02:51;3.03;;;0.80;;
73919;SDS011;62266;53.348;-1.496;2023-07-16T10:05:38;1.63;;;0.63;;
73919;SDS011;62266;53.348;-1.496;2023-07-16T10:08:22;3.63;;;0.88;;
73919;SDS011;62266;53.348;-1.496;2023-07-16T10:11:15;2.10;;;0.80;;
73919;SDS011;62266;53.348;-1.496;2023-07-16T10:14:02;2.25;;;0.80;;
73919;SDS011;62266;53.348;-1.496;2023-07-16T10:16:46;3.17;;;1.00;;
73919;SDS011;62266;53.348;-1.496;2023-07-16T10:19:34;2.42;;;0.90;;
73919;SDS011;62266;53.348;-1.496;2023-07-16T10:22:43;3.55;;;1.20;;
73919;SDS011;62266;53.348;-1.496;2023-07-16T10:25:29;3.30;;;0.73;;
73919;SDS011;62266;53.348;-1.496;2023-07-16T10:28:13;1.77;;;0.77;;
73919;SDS011;62266;53.348;-1.496;2023-07-16T10:30:57;2.53;;;0.77;;
73919;SDS011;62266;53.348;-1.496;2023-07-16T10:33:42;4.43;;;1.48;;
73919;SDS011;62266;53.348;-1.496;2023-07-16T10:36:26;2.90;;;0.90;;
73919;SDS011;62266;53.348;-1.496;2023-07-16T10:39:10;3.57;;;0.90;;
73919;SDS011;62266;53.348;-1.496;2023-07-16T10:41:54;2.33;;;0.80;;
73919;SDS011;62266;53.348;-1.496;2023-07-16T10:44:39;2.88;;;0.77;;
73919;SDS011;62266;53.348;-1.496;2023-07-16T10:47:24;1.65;;;0.70;;
73919;SDS011;62266;53.348;-1.496;2023-07-16T10:50:09;2.78;;;1.10;;
73919;SDS011;62266;53.348;-1.496;2023-07-16T10:52:54;4.40;;;1.10;;
73919;SDS011;62266;53.348;-1.496;2023-07-16T10:55:40;4.00;;;1.00;;
73919;SDS011;62266;53.348;-1.496;2023-07-16T10:58:25;3.13;;;1.05;;
73919;SDS011;62266;53.348;-1.496;2023-07-16T11:01:09;2.67;;;1.13;;
73919;SDS011;62266;53.348;-1.496;2023-07-16T11:03:53;2.63;;;0.75;;
73919;SDS011;62266;53.348;-1.496;2023-07-16T11:06:44;2.63;;;0.83;;
73919;SDS011;62266;53.348;-1.496;2023-07-16T11:09:28;3.47;;;0.80;;
73919;SDS011;62266;53.348;-1.496;2023-07-16T11:12:14;2.80;;;0.70;;
73919;SDS011;62266;53.348;-1.496;2023-07-16T11:14:59;3.10;;;0.73;;
73919;SDS011;62266;53.348;-1.496;2023-07-16T11:17:43;2.40;;;0.70;;
73919;SDS011;62266;53.348;-1.496;2023-07-16T11:20:32;2.13;;;0.60;;
73919;SDS011;62266;53.348;-1.496;2023-07-16T11:23:16;1.40;;;0.40;;
73919;SDS011;62266;53.348;-1.496;2023-07-16T11:26:04;2.50;;;0.77;;
73919;SDS011;62266;53.348;-1.496;2023-07-16T11:28:49;1.55;;;0.50;;
73919;SDS011;62266;53.348;-1.496;2023-07-16T11:31:38;1.77;;;0.50;;
73919;SDS011;62266;53.348;-1.496;2023-07-16T11:34:23;3.40;;;0.57;;
73919;SDS011;62266;53.348;-1.496;2023-07-16T11:37:10;3.50;;;0.47;;
73919;SDS011;62266;53.348;-1.496;2023-07-16T11:42:49;1.70;;;0.60;;
73919;SDS011;62266;53.348;-1.496;2023-07-16T11:45:35;1.60;;;0.40;;
73919;SDS011;62266;53.348;-1.496;2023-07-16T11:48:22;3.20;;;0.53;;
73919;SDS011;62266;53.348;-1.496;2023-07-16T11:51:07;2.58;;;0.65;;
73919;SDS011;62266;53.348;-1.496;2023-07-16T11:53:51;2.00;;;0.30;;
73919;SDS011;62266;53.348;-1.496;2023-07-16T11:56:35;1.88;;;0.40;;
73919;SDS011;62266;53.348;-1.496;2023-07-16T11:59:24;2.33;;;0.77;;
73919;SDS011;62266;53.348;-1.496;2023-07-16T12:02:08;2.47;;;0.70;;
73919;SDS011;62266;53.348;-1.496;2023-07-16T12:04:52;2.55;;;0.80;;
73919;SDS011;62266;53.348;-1.496;2023-07-16T12:07:36;2.58;;;0.98;;
73919;SDS011;62266;53.348;-1.496;2023-07-16T12:10:21;3.92;;;1.25;;
73919;SDS011;62266;53.348;-1.496;2023-07-16T12:13:05;2.97;;;0.88;;
73919;SDS011;62266;53.348;-1.496;2023-07-16T12:15:49;2.93;;;0.87;;
73919;SDS011;62266;53.348;-1.496;2023-07-16T12:18:33;2.95;;;0.75;;
73919;SDS011;62266;53.348;-1.496;2023-07-16T12:21:16;2.75;;;0.63;;
73919;SDS011;62266;53.348;-1.496;2023-07-16T12:24:01;2.70;;;0.73;;
73919;SDS011;62266;53.348;-1.496;2023-07-16T12:26:44;1.88;;;0.90;;
73919;SDS011;62266;53.348;-1.496;2023-07-16T12:29:28;2.10;;;0.60;;
73919;SDS011;62266;53.348;-1.496;2023-07-16T12:32:13;1.55;;;0.40;;
73919;SDS011;62266;53.348;-1.496;2023-07-16T12:34:57;3.53;;;0.57;;
73919;SDS011;62266;53.348;-1.496;2023-07-16T12:37:43;2.08;;;0.77;;
73919;SDS011;62266;53.348;-1.496;2023-07-16T12:40:29;1.70;;;0.60;;
73919;SDS011;62266;53.348;-1.496;2023-07-16T12:43:13;2.50;;;0.60;;
73919;SDS011;62266;53.348;-1.496;2023-07-16T12:45:57;3.72;;;0.82;;
73919;SDS011;62266;53.348;-1.496;2023-07-16T12:48:41;2.88;;;0.82;;
73919;SDS011;62266;53.348;-1.496;2023-07-16T12:51:27;3.75;;;1.02;;
73919;SDS011;62266;53.348;-1.496;2023-07-16T12:54:11;2.08;;;1.40;;
73919;SDS011;62266;53.348;-1.496;2023-07-16T12:56:55;2.97;;;1.10;;
73919;SDS011;62266;53.348;-1.496;2023-07-16T12:59:39;2.28;;;1.20;;
73919;SDS011;62266;53.348;-1.496;2023-07-16T13:02:22;2.30;;;0.90;;
73919;SDS011;62266;53.348;-1.496;2023-07-16T13:05:07;3.67;;;0.98;;
73919;SDS011;62266;53.348;-1.496;2023-07-16T13:07:52;3.13;;;0.90;;
73919;SDS011;62266;53.348;-1.496;2023-07-16T13:10:37;2.33;;;0.93;;
73919;SDS011;62266;53.348;-1.496;2023-07-16T13:13:23;3.13;;;1.08;;
73919;SDS011;62266;53.348;-1.496;2023-07-16T13:16:07;3.15;;;0.95;;
73919;SDS011;62266;53.348;-1.496;2023-07-16T13:18:54;3.38;;;0.98;;
73919;SDS011;62266;53.348;-1.496;2023-07-16T13:21:38;3.72;;;1.02;;
73919;SDS011;62266;53.348;-1.496;2023-07-16T13:24:22;4.20;;;1.20;;
73919;SDS011;62266;53.348;-1.496;2023-07-16T13:27:21;2.40;;;0.90;;
73919;SDS011;62266;53.348;-1.496;2023-07-16T13:30:07;3.25;;;0.93;;
73919;SDS011;62266;53.348;-1.496;2023-07-16T13:32:57;2.67;;;0.90;;
73919;SDS011;62266;53.348;-1.496;2023-07-16T13:35:41;2.00;;;0.80;;
73919;SDS011;62266;53.348;-1.496;2023-07-16T13:38:26;5.80;;;0.90;;
73919;SDS011;62266;53.348;-1.496;2023-07-16T13:41:10;1.80;;;0.70;;
73919;SDS011;62266;53.348;-1.496;2023-07-16T13:43:55;2.50;;;0.68;;
73919;SDS011;62266;53.348;-1.496;2023-07-16T13:46:40;2.42;;;0.65;;
73919;SDS011;62266;53.348;-1.496;2023-07-16T13:49:27;1.80;;;0.60;;
73919;SDS011;62266;53.348;-1.496;2023-07-16T13:52:11;1.97;;;0.60;;
73919;SDS011;62266;53.348;-1.496;2023-07-16T13:54:55;3.05;;;0.82;;
73919;SDS011;62266;53.348;-1.496;2023-07-16T13:57:39;2.13;;;0.45;;
73919;SDS011;62266;53.348;-1.496;2023-07-16T14:00:24;2.35;;;0.60;;
73919;SDS011;62266;53.348;-1.496;2023-07-16T14:03:09;1.55;;;0.60;;
73919;SDS011;62266;53.348;-1.496;2023-07-16T14:05:53;1.93;;;0.67;;
73919;SDS011;62266;53.348;-1.496;2023-07-16T14:08:38;1.42;;;0.60;;
73919;SDS011;62266;53.348;-1.496;2023-07-16T14:11:22;1.73;;;0.63;;
73919;SDS011;62266;53.348;-1.496;2023-07-16T14:14:09;2.33;;;0.70;;
73919;SDS011;62266;53.348;-1.496;2023-07-16T14:16:54;1.75;;;0.80;;
73919;SDS011;62266;53.348;-1.496;2023-07-16T14:19:39;4.60;;;1.00;;
73919;SDS011;62266;53.348;-1.496;2023-07-16T14:22:25;3.22;;;0.88;;
73919;SDS011;62266;53.348;-1.496;2023-07-16T14:25:11;2.28;;;0.82;;
73919;SDS011;62266;53.348;-1.496;2023-07-16T14:27:55;1.67;;;0.90;;
73919;SDS011;62266;53.348;-1.496;2023-07-16T14:30:39;3.83;;;0.98;;
73919;SDS011;62266;53.348;-1.496;2023-07-16T14:33:24;3.33;;;1.17;;
73919;SDS011;62266;53.348;-1.496;2023-07-16T14:36:08;2.67;;;1.10;;
73919;SDS011;62266;53.348;-1.496;2023-07-16T14:38:52;1.98;;;0.70;;
73919;SDS011;62266;53.348;-1.496;2023-07-16T14:41:36;1.88;;;0.80;;
73919;SDS011;62266;53.348;-1.496;2023-07-16T14:44:21;1.75;;;1.05;;
73919;SDS011;62266;53.348;-1.496;2023-07-16T14:47:05;1.30;;;1.00;;
73919;SDS011;62266;53.348;-1.496;2023-07-16T14:49:50;1.67;;;1.20;;
73919;SDS011;62266;53.348;-1.496;2023-07-16T14:52:34;1.48;;;1.15;;
73919;SDS011;62266;53.348;-1.496;2023-07-16T14:55:20;2.58;;;0.90;;
73919;SDS011;62266;53.348;-1.496;2023-07-16T14:58:04;2.78;;;1.08;;
73919;SDS011;62266;53.348;-1.496;2023-07-16T15:06:12;1.70;;;0.80;;
73919;SDS011;62266;53.348;-1.496;2023-07-16T15:28:18;3.23;;;1.40;;
73919;SDS011;62266;53.348;-1.496;2023-07-16T15:31:02;3.83;;;1.50;;
73919;SDS011;62266;53.348;-1.496;2023-07-16T15:33:47;2.33;;;0.90;;
73919;SDS011;62266;53.348;-1.496;2023-07-16T15:36:31;1.58;;;0.80;;
73919;SDS011;62266;53.348;-1.496;2023-07-16T15:39:16;2.17;;;1.30;;
73919;SDS011;62266;53.348;-1.496;2023-07-16T15:42:01;1.70;;;0.70;;
73919;SDS011;62266;53.348;-1.496;2023-07-16T15:44:46;2.80;;;0.90;;
73919;SDS011;62266;53.348;-1.496;2023-07-16T15:47:31;1.73;;;0.60;;
73919;SDS011;62266;53.348;-1.496;2023-07-16T15:50:15;2.50;;;0.70;;
73919;SDS011;62266;53.348;-1.496;2023-07-16T15:53:02;2.83;;;0.90;;
73919;SDS011;62266;53.348;-1.496;2023-07-16T15:55:46;2.70;;;1.00;;
73919;SDS011;62266;53.348;-1.496;2023-07-16T15:58:30;2.03;;;0.68;;
73919;SDS011;62266;53.348;-1.496;2023-07-16T16:01:17;0.80;;;0.50;;
73919;SDS011;62266;53.348;-1.496;2023-07-16T16:04:02;2.35;;;0.80;;
73919;SDS011;62266;53.348;-1.496;2023-07-16T16:06:46;1.98;;;0.68;;
73919;SDS011;62266;53.348;-1.496;2023-07-16T16:12:12;1.95;;;0.90;;
73919;SDS011;62266;53.348;-1.496;2023-07-16T16:14:57;3.40;;;0.90;;
73919;SDS011;62266;53.348;-1.496;2023-07-16T16:17:41;3.97;;;1.00;;
73919;SDS011;62266;53.348;-1.496;2023-07-16T16:20:25;3.00;;;0.80;;
73919;SDS011;62266;53.348;-1.496;2023-07-16T16:23:10;1.57;;;0.70;;
73919;SDS011;62266;53.348;-1.496;2023-07-16T16:25:54;0.65;;;0.47;;
73919;SDS011;62266;53.348;-1.496;2023-07-16T16:28:38;0.90;;;0.40;;
73919;SDS011;62266;53.348;-1.496;2023-07-16T16:31:23;1.60;;;0.50;;
73919;SDS011;62266;53.348;-1.496;2023-07-16T16:34:07;2.67;;;0.70;;
73919;SDS011;62266;53.348;-1.496;2023-07-16T16:36:51;1.50;;;0.57;;
73919;SDS011;62266;53.348;-1.496;2023-07-16T16:39:38;2.00;;;0.50;;
73919;SDS011;62266;53.348;-1.496;2023-07-16T16:42:22;3.30;;;0.65;;
73919;SDS011;62266;53.348;-1.496;2023-07-16T16:45:06;2.08;;;1.00;;
73919;SDS011;62266;53.348;-1.496;2023-07-16T16:47:51;2.20;;;0.70;;
73919;SDS011;62266;53.348;-1.496;2023-07-16T16:50:35;1.70;;;0.80;;
73919;SDS011;62266;53.348;-1.496;2023-07-16T16:53:20;0.88;;;0.60;;